createdAt,value
2022-10-21T00:04:12.668Z,100297.31
2022-10-21T00:06:40.546Z,100318.31
2022-10-21T00:09:08.250Z,100314.53
2022-10-21T00:11:35.992Z,100306.34
2022-10-21T00:14:06.023Z,100297.31
2022-10-21T00:16:33.701Z,100299.19
2022-10-21T00:19:01.481Z,100296.47
2022-10-21T00:21:29.140Z,100287.41
2022-10-21T00:23:58.964Z,100275.66
2022-10-21T00:26:26.624Z,100265.78
2022-10-21T00:28:54.346Z,100271.03
2022-10-21T00:31:22.033Z,100257.41
2022-10-21T00:33:49.730Z,100255.72
2022-10-21T00:36:17.402Z,100259.50
2022-10-21T00:38:45.118Z,100254.88
2022-10-21T00:41:12.829Z,100243.97
2022-10-21T00:43:42.902Z,100253.00
2022-10-21T00:46:10.544Z,100244.81
2022-10-21T00:48:38.293Z,100252.16
2022-10-21T00:51:11.390Z,100250.25
2022-10-21T00:53:39.090Z,100233.22
2022-10-21T00:56:06.769Z,100230.50
2022-10-21T00:58:34.415Z,100225.88
2022-10-21T01:01:02.414Z,100218.56
2022-10-21T01:03:30.099Z,100207.66
2022-10-21T01:05:57.767Z,100197.75
2022-10-21T01:08:25.826Z,100205.28
2022-10-21T01:10:53.580Z,100196.91
2022-10-21T01:13:24.265Z,100204.25
2022-10-21T01:15:52.005Z,100205.09
2022-10-21T01:18:23.996Z,100196.06
2022-10-21T01:20:51.660Z,100183.44
2022-10-21T01:23:19.320Z,100183.44
2022-10-21T01:25:47.010Z,100177.16
2022-10-21T01:28:19.116Z,100168.13
2022-10-21T01:30:46.769Z,100169.81
2022-10-21T01:33:14.528Z,100168.78
2022-10-21T01:35:42.247Z,100170.88
2022-10-21T01:38:09.957Z,100167.94
2022-10-21T01:40:37.625Z,100162.69
2022-10-21T01:43:05.373Z,100185.34
2022-10-21T01:45:33.215Z,100183.44
2022-10-21T01:48:00.890Z,100179.88
2022-10-21T01:50:28.563Z,100170.88
2022-10-21T01:52:56.456Z,100157.41
2022-10-21T01:55:24.139Z,100158.28
2022-10-21T01:57:51.826Z,100163.72
2022-10-21T02:00:19.572Z,100152.81
2022-10-21T02:02:47.416Z,100147.34
2022-10-21T02:05:15.071Z,100143.56
2022-10-21T02:07:42.737Z,100139.16
2022-10-21T02:10:10.422Z,100141.91
2022-10-21T02:12:38.464Z,100141.91
2022-10-21T02:15:09.075Z,100141.91
2022-10-21T02:17:39.522Z,100132.66
2022-10-21T02:20:07.440Z,100141.91
2022-10-21T02:22:35.214Z,100142.75
2022-10-21T02:25:03.025Z,100137.28
2022-10-21T02:27:35.771Z,100135.38
2022-10-21T02:30:03.430Z,100132.66
2022-10-21T02:32:31.159Z,100139.78
2022-10-21T02:35:01.891Z,100141.50
2022-10-21T02:37:29.778Z,100145.91
2022-10-21T02:39:57.502Z,100129.53
2022-10-21T02:42:32.538Z,100125.97
2022-10-21T02:45:00.234Z,100117.97
2022-10-21T02:47:27.935Z,100114.22
2022-10-21T02:49:55.581Z,100114.22
2022-10-21T02:52:23.255Z,100117.78
2022-10-21T02:54:50.952Z,100117.97
2022-10-21T02:57:24.643Z,100108.75
2022-10-21T02:59:52.309Z,100097.84
2022-10-21T03:02:20.029Z,100099.72
2022-10-21T03:04:47.723Z,100097.84
2022-10-21T03:07:15.386Z,100097.00
2022-10-21T03:09:43.062Z,100097.84
2022-10-21T03:12:13.122Z,100086.91
2022-10-21T03:14:40.859Z,100079.75
2022-10-21T03:17:08.705Z,100080.63
2022-10-21T03:19:36.381Z,100077.03
2022-10-21T03:22:04.065Z,100078.91
2022-10-21T03:24:31.805Z,100078.91
2022-10-21T03:26:59.603Z,100072.63
2022-10-21T03:29:27.465Z,100072.63
2022-10-21T03:31:55.279Z,100061.72
2022-10-21T03:34:23.109Z,100065.28
2022-10-21T03:36:51.017Z,100078.09
2022-10-21T03:39:18.822Z,100079.13
2022-10-21T03:41:46.640Z,100086.28
2022-10-21T03:44:14.433Z,100090.06
2022-10-21T03:46:42.256Z,100081.88
2022-10-21T03:49:15.511Z,100079.13
2022-10-21T03:51:47.711Z,100081.66
2022-10-21T03:54:15.697Z,100069.91
2022-10-21T03:56:43.521Z,100078.09
2022-10-21T03:59:11.365Z,100072.63
2022-10-21T04:01:39.206Z,100058.16
2022-10-21T04:04:06.978Z,100051.84
2022-10-21T04:06:34.864Z,100052.69
2022-10-21T04:09:02.694Z,100057.09
2022-10-21T04:11:30.531Z,100041.78
2022-10-21T04:13:58.610Z,100036.09
2022-10-21T04:16:27.506Z,100038.81
2022-10-21T04:18:55.403Z,100038.22
2022-10-21T04:23:55.893Z,100030.03
2022-10-21T04:26:23.655Z,100029.81
2022-10-21T04:28:51.606Z,100022.84
2022-10-21T04:31:19.379Z,100018.47
2022-10-21T04:34:00.784Z,100014.66
2022-10-21T04:36:29.185Z,100019.09
2022-10-21T04:38:57.047Z,100023.50
2022-10-21T04:41:24.803Z,100028.97
2022-10-21T04:43:54.923Z,100021.84
2022-10-21T04:46:22.661Z,100018.25
2022-10-21T04:48:50.506Z,100019.09
2022-10-21T04:51:18.373Z,100015.31
2022-10-21T04:53:46.252Z,100007.13
2022-10-21T04:56:14.040Z,100007.97
2022-10-21T04:58:41.803Z,100012.59
2022-10-21T05:01:09.612Z,100007.97
2022-10-21T05:03:37.510Z,100000.00
2022-10-21T05:06:05.281Z,100000.00
2022-10-21T05:08:33.158Z,99994.53
2022-10-21T05:11:01.040Z,99995.38
2022-10-21T05:13:28.811Z,99994.53
2022-10-21T05:15:56.596Z,99998.94
2022-10-21T05:18:24.370Z,99997.91
2022-10-21T05:20:52.330Z,99996.22
2022-10-21T05:23:20.299Z,100008.81
2022-10-21T05:25:48.185Z,100006.72
2022-10-21T05:28:16.014Z,100004.00
2022-10-21T05:30:43.764Z,100003.81
2022-10-21T05:33:11.545Z,100019.34
2022-10-21T05:35:39.427Z,100011.16
2022-10-21T05:38:07.229Z,100005.69
2022-10-21T05:40:35.033Z,100007.38
2022-10-21T05:43:02.830Z,100010.09
2022-10-21T05:45:30.577Z,100009.25
2022-10-21T05:47:58.375Z,100010.09
2022-10-21T05:50:26.291Z,100006.31
2022-10-21T05:52:55.698Z,100011.16
2022-10-21T05:55:23.599Z,100003.81
2022-10-21T06:00:18.999Z,100002.97
2022-10-21T06:02:46.779Z,100006.72
2022-10-21T06:05:14.563Z,99988.69
2022-10-21T06:07:42.494Z,99986.78
2022-10-21T06:10:12.452Z,99994.97
2022-10-21T06:12:40.303Z,99996.88
2022-10-21T06:15:08.145Z,99995.81
2022-10-21T06:17:36.200Z,100001.50
2022-10-21T06:20:04.125Z,100003.34
2022-10-21T06:22:31.939Z,100007.78
2022-10-21T06:24:59.716Z,100006.72
2022-10-21T06:27:27.571Z,99999.59
2022-10-21T06:29:55.368Z,99999.38
2022-10-21T06:32:23.086Z,99999.59
2022-10-21T06:34:50.981Z,99994.13
2022-10-21T06:37:18.746Z,99991.19
2022-10-21T06:39:48.836Z,99994.97
2022-10-21T06:42:16.730Z,99992.88
2022-10-21T06:44:44.534Z,99994.78
2022-10-21T06:47:12.335Z,99998.34
2022-10-21T06:49:43.279Z,100001.91
2022-10-21T06:52:11.114Z,99994.56
2022-10-21T06:54:39.402Z,99998.13
2022-10-21T06:57:07.169Z,100000.03
2022-10-21T06:59:35.024Z,99996.44
2022-10-21T07:02:02.876Z,100003.81
2022-10-21T07:04:30.847Z,99988.25
2022-10-21T07:06:58.608Z,99983.66
2022-10-21T07:09:26.494Z,99997.09
2022-10-21T07:11:54.357Z,99993.72
2022-10-21T07:14:22.130Z,99991.84
2022-10-21T07:16:51.572Z,99999.19
2022-10-21T07:19:19.437Z,99989.09
2022-10-21T07:21:47.374Z,100003.59
2022-10-21T07:24:18.740Z,100011.78
2022-10-21T07:26:49.212Z,100004.63
2022-10-21T07:29:17.220Z,100012.81
2022-10-21T07:31:45.004Z,100002.09
2022-10-21T07:34:12.908Z,100004.63
2022-10-21T07:36:40.700Z,100002.97
2022-10-21T07:39:08.583Z,100014.50
2022-10-21T07:41:36.500Z,100014.72
2022-10-21T07:44:04.294Z,100016.41
2022-10-21T07:46:32.086Z,100010.09
2022-10-21T07:48:59.902Z,100015.56
2022-10-21T07:51:30.183Z,100030.88
2022-10-21T07:53:58.978Z,100015.56
2022-10-21T07:56:26.846Z,100008.22
2022-10-21T07:58:54.740Z,99999.19
2022-10-21T08:01:22.523Z,100001.91
2022-10-21T08:03:50.405Z,100004.63
2022-10-21T08:06:18.211Z,100007.19
2022-10-21T08:08:46.055Z,100004.44
2022-10-21T08:11:13.943Z,100001.72
2022-10-21T08:13:43.170Z,99991.66
2022-10-21T08:16:10.934Z,99979.66
2022-10-21T08:18:38.746Z,99973.19
2022-10-21T08:21:06.483Z,99972.31
2022-10-21T08:23:34.396Z,99978.66
2022-10-21T08:26:02.294Z,99981.38
2022-10-21T08:28:30.098Z,99974.84
2022-10-21T08:30:57.871Z,99974.84
2022-10-21T08:33:25.644Z,99973.19
2022-10-21T08:35:53.436Z,99962.25
2022-10-21T08:38:21.402Z,99972.31
2022-10-21T08:40:51.125Z,99965.84
2022-10-21T08:43:21.404Z,99956.81
2022-10-21T08:45:49.199Z,99951.34
2022-10-21T08:48:17.052Z,99949.22
2022-10-21T08:50:44.883Z,99949.22
2022-10-21T08:53:12.625Z,99930.13
2022-10-21T08:55:40.559Z,99932.84
2022-10-21T08:58:10.556Z,99931.00
2022-10-21T09:00:40.485Z,99942.94
2022-10-21T09:03:08.862Z,99941.91
2022-10-21T09:05:36.670Z,99939.19
2022-10-21T09:08:04.476Z,99927.63
2022-10-21T09:10:32.247Z,99931.19
2022-10-21T09:12:59.980Z,99928.47
2022-10-21T09:15:27.799Z,99928.28
2022-10-21T09:17:55.545Z,99935.41
2022-10-21T09:20:23.342Z,99933.50
2022-10-21T09:22:52.241Z,99940.03
2022-10-21T09:25:41.189Z,99947.16
2022-10-21T09:28:08.905Z,99947.38
2022-10-21T09:30:36.749Z,99948.22
2022-10-21T09:33:04.510Z,99947.16
2022-10-21T09:35:32.359Z,99949.03
2022-10-21T09:38:00.180Z,99958.06
2022-10-21T09:40:28.429Z,99957.22
2022-10-21T09:42:56.521Z,99950.09
2022-10-21T09:45:24.262Z,99952.59
2022-10-21T09:47:52.106Z,99955.16
2022-10-21T09:50:20.470Z,99945.06
2022-10-21T09:52:48.209Z,99956.16
2022-10-21T09:55:15.991Z,99947.16
2022-10-21T09:57:43.714Z,99938.97
2022-10-21T10:00:13.782Z,99938.97
2022-10-21T10:02:43.204Z,99944.22
2022-10-21T10:05:11.505Z,99940.66
2022-10-21T10:07:39.197Z,99940.44
2022-10-21T10:10:06.955Z,99944.66
2022-10-21T10:15:02.480Z,99938.13
2022-10-21T10:17:30.226Z,99949.69
2022-10-21T10:19:57.938Z,99940.47
2022-10-21T10:22:26.982Z,99940.47
2022-10-21T10:24:54.709Z,99938.34
2022-10-21T10:27:23.364Z,99932.91
2022-10-21T10:29:51.139Z,99932.06
2022-10-21T10:32:18.889Z,99936.28
2022-10-21T10:34:46.666Z,99940.06
2022-10-21T10:37:14.364Z,99934.59
2022-10-21T10:39:42.082Z,99930.81
2022-10-21T10:42:09.846Z,99932.69
2022-10-21T10:44:37.562Z,99939.00
2022-10-21T10:47:05.280Z,99941.72
2022-10-21T10:49:33.066Z,99931.88
2022-10-21T10:52:00.829Z,99928.50
2022-10-21T10:54:28.534Z,99924.09
2022-10-21T10:56:56.263Z,99916.94
2022-10-21T10:59:24.016Z,99920.72
2022-10-21T11:01:51.732Z,99911.47
2022-10-21T11:04:19.387Z,99912.31
2022-10-21T11:06:47.074Z,99916.75
2022-10-21T11:09:14.822Z,99914.84
2022-10-21T11:11:42.506Z,99912.94
2022-10-21T11:14:10.196Z,99912.75
2022-10-21T11:16:45.049Z,99904.75
2022-10-21T11:19:25.149Z,99912.13
2022-10-21T11:21:52.836Z,99908.56
2022-10-21T11:24:20.739Z,99905.81
2022-10-21T11:26:48.505Z,99903.09
2022-10-21T11:29:16.244Z,99895.75
2022-10-21T11:31:59.850Z,99892.81
2022-10-21T11:34:31.547Z,99877.28
2022-10-21T11:36:59.219Z,99876.22
2022-10-21T11:39:26.992Z,99886.94
2022-10-21T11:41:54.635Z,99887.78
2022-10-21T11:44:25.053Z,99885.03
2022-10-21T11:46:54.959Z,99868.66
2022-10-21T11:49:22.662Z,99873.94
2022-10-21T11:51:50.332Z,99876.66
2022-10-21T11:54:17.983Z,99886.72
2022-10-21T11:56:46.062Z,99892.16
2022-10-21T11:59:13.726Z,99895.78
2022-10-21T12:01:41.993Z,99891.16
2022-10-21T12:04:09.682Z,99889.44
2022-10-21T12:06:38.593Z,99895.78
2022-10-21T12:09:06.257Z,99905.81
2022-10-21T12:11:33.937Z,99897.63
2022-10-21T12:14:01.621Z,99896.59
2022-10-21T12:16:29.302Z,99893.22
2022-10-21T12:18:56.969Z,99895.97
2022-10-21T12:21:24.649Z,99897.03
2022-10-21T12:23:52.327Z,99901.44
2022-10-21T12:26:19.998Z,99907.31
2022-10-21T12:28:47.682Z,99899.94
2022-10-21T12:31:15.451Z,99896.38
2022-10-21T12:33:43.125Z,99893.84
2022-10-21T12:36:10.891Z,99894.69
2022-10-21T12:38:38.601Z,99901.84
2022-10-21T12:41:06.256Z,99900.38
2022-10-21T12:43:34.003Z,99902.25
2022-10-21T12:46:01.694Z,99897.63
2022-10-21T12:48:29.468Z,99899.72
2022-10-21T12:50:57.144Z,99895.53
2022-10-21T12:58:20.126Z,99882.94
2022-10-21T13:00:47.808Z,99882.06
2022-10-21T13:03:15.594Z,99882.94
2022-10-21T13:05:43.353Z,99882.94
2022-10-21T13:08:11.080Z,99884.59
2022-10-21T13:10:38.837Z,99882.94
2022-10-21T13:13:06.509Z,99891.72
2022-10-21T13:20:33.044Z,99900.78
2022-10-21T13:23:03.628Z,99894.47
2022-10-21T13:25:33.586Z,99884.41
2022-10-21T13:28:01.292Z,99888.63
2022-10-21T13:30:28.963Z,99885.00
2022-10-21T13:32:56.645Z,99880.44
2022-10-21T13:35:24.508Z,99888.63
2022-10-21T13:37:52.409Z,99884.81
2022-10-21T13:40:20.076Z,99882.09
2022-10-21T13:42:47.791Z,99874.75
2022-10-21T13:45:15.447Z,99865.53
2022-10-21T13:47:43.170Z,99876.44
2022-10-21T13:50:10.837Z,99880.00
2022-10-21T13:52:38.506Z,99873.47
2022-10-21T13:55:06.163Z,99875.19
2022-10-21T13:57:33.828Z,99876.84
2022-10-21T14:00:01.510Z,99873.06
2022-10-21T14:02:29.588Z,99875.59
2022-10-21T14:04:57.387Z,99875.41
2022-10-21T14:07:25.055Z,99875.81
2022-10-21T14:09:52.815Z,99875.34
2022-10-21T14:12:20.529Z,99884.63
2022-10-21T14:14:48.280Z,99876.97
2022-10-21T14:17:16.027Z,99871.06
2022-10-21T14:19:43.729Z,99883.00
2022-10-21T14:22:11.457Z,99872.25
2022-10-21T14:24:39.089Z,99867.22
2022-10-21T14:27:06.742Z,99857.31
2022-10-21T14:29:34.525Z,99870.78
2022-10-21T14:32:02.214Z,99866.09
2022-10-21T14:34:29.973Z,99852.97
2022-10-21T14:36:57.731Z,99855.94
2022-10-21T14:39:25.454Z,99862.34
2022-10-21T14:41:53.255Z,99855.47
2022-10-21T14:44:20.980Z,99858.59
2022-10-21T14:46:48.663Z,99857.59
2022-10-21T14:51:49.084Z,99855.16
2022-10-21T14:54:17.139Z,99859.19
2022-10-21T14:56:46.937Z,99849.13
2022-10-21T14:59:14.603Z,99852.41
2022-10-21T15:01:42.277Z,99855.03
2022-10-21T15:04:10.045Z,99848.28
2022-10-21T15:06:37.797Z,99848.75
2022-10-21T15:09:05.579Z,99845.78
2022-10-21T15:11:33.510Z,99852.22
2022-10-21T15:14:01.249Z,99851.69
2022-10-21T15:16:28.947Z,99859.19
2022-10-21T15:18:56.746Z,99855.50
2022-10-21T15:21:25.308Z,99861.91
2022-10-21T15:23:53.067Z,99857.78
2022-10-21T15:26:20.906Z,99861.63
2022-10-21T15:28:48.593Z,99855.56
2022-10-21T15:31:16.347Z,99855.84
2022-10-21T15:33:44.003Z,99856.09
2022-10-21T15:36:12.065Z,99860.13
2022-10-21T15:38:44.731Z,99865.63
2022-10-21T15:41:12.643Z,99862.59
2022-10-21T15:43:40.526Z,99870.06
2022-10-21T15:46:08.233Z,99866.25
2022-10-21T15:48:36.234Z,99868.38
2022-10-21T15:51:04.095Z,99868.19
2022-10-21T15:53:31.816Z,99869.72
2022-10-21T15:55:59.518Z,99871.63
2022-10-21T15:58:27.286Z,99878.19
2022-10-21T16:00:55.039Z,99875.50
2022-10-21T16:03:23.341Z,99874.69
2022-10-21T16:05:51.039Z,99885.63
2022-10-21T16:08:18.796Z,99882.50
2022-10-21T16:10:47.993Z,99887.97
2022-10-21T16:13:15.704Z,99879.38
2022-10-21T16:15:43.592Z,99882.97
2022-10-21T16:18:11.490Z,99880.84
2022-10-21T16:20:39.172Z,99879.38
2022-10-21T16:23:06.850Z,99873.50
2022-10-21T16:25:34.884Z,99876.66
2022-10-21T16:28:02.520Z,99888.25
2022-10-21T16:30:30.383Z,99888.66
2022-10-21T16:55:07.434Z,99894.78
2022-10-21T16:57:35.453Z,99904.03
2022-10-21T17:00:03.183Z,99898.16
2022-10-21T17:02:31.319Z,99889.31
2022-10-21T17:04:59.018Z,99892.69
2022-10-21T17:07:26.968Z,99885.31
2022-10-21T17:09:54.632Z,99901.94
2022-10-21T17:12:23.277Z,99898.56
2022-10-21T17:14:51.115Z,99915.16
2022-10-21T17:17:21.268Z,99914.31
2022-10-21T17:19:49.005Z,99910.13
2022-10-21T17:22:16.880Z,99918.53
2022-10-21T17:24:44.561Z,99916.66
2022-10-21T17:27:14.726Z,99908.66
2022-10-21T17:29:45.008Z,99912.22
2022-10-21T17:32:12.887Z,99913.47
2022-10-21T17:34:41.106Z,99908.44
2022-10-21T17:37:08.867Z,99922.50
2022-10-21T17:39:36.557Z,99930.94
2022-10-21T17:42:04.275Z,99933.66
2022-10-21T17:44:31.981Z,99931.31
2022-10-21T17:46:59.829Z,99933.03
2022-10-21T17:49:27.639Z,99925.03
2022-10-21T17:51:55.374Z,99935.13
2022-10-21T17:54:26.567Z,99934.28
2022-10-21T17:56:57.959Z,99930.72
2022-10-21T17:59:26.909Z,99930.91
2022-10-21T18:01:54.596Z,99939.31
2022-10-21T18:04:22.243Z,99941.19
2022-10-21T18:06:50.007Z,99943.25
2022-10-21T18:09:18.067Z,99943.25
2022-10-21T18:11:45.880Z,99938.47
2022-10-21T18:14:14.314Z,99944.75
2022-10-21T18:16:42.314Z,99930.66
2022-10-21T18:19:10.043Z,99922.47
2022-10-21T18:21:37.828Z,99920.81
2022-10-21T18:24:10.034Z,99917.44
2022-10-21T18:26:39.998Z,99912.81
2022-10-21T18:29:07.752Z,99917.44
2022-10-21T18:31:35.748Z,99911.75
2022-10-21T18:34:03.964Z,99909.25
2022-10-21T18:36:31.832Z,99903.56
2022-10-21T18:38:59.609Z,99901.88
2022-10-21T18:41:27.309Z,99901.88
2022-10-21T18:43:55.028Z,99903.97
2022-10-21T18:46:22.821Z,99910.28
2022-10-21T18:48:50.575Z,99906.69
2022-10-21T18:51:19.133Z,99923.09
2022-10-21T18:53:49.793Z,99923.09
2022-10-21T18:56:19.259Z,99915.13
2022-10-21T18:58:47.193Z,99908.78
2022-10-21T19:01:15.621Z,99914.25
2022-10-21T19:03:43.344Z,99925.41
2022-10-21T19:06:11.087Z,99926.44
2022-10-21T19:08:38.833Z,99924.56
2022-10-21T19:11:06.558Z,99933.78
2022-10-21T19:13:34.214Z,99934.84
2022-10-21T19:16:03.121Z,99936.75
2022-10-21T19:18:30.917Z,99940.50
2022-10-21T19:20:58.650Z,99939.66
2022-10-21T19:23:27.808Z,99935.03
2022-10-21T19:25:55.699Z,99929.81
2022-10-21T19:28:23.390Z,99922.66
2022-10-21T19:30:51.161Z,99930.84
2022-10-21T19:33:18.825Z,99941.75
2022-10-21T19:35:46.499Z,99943.66
2022-10-21T19:38:20.770Z,99936.31
2022-10-21T19:40:54.222Z,99935.88
2022-10-21T19:43:21.943Z,99938.41
2022-10-21T19:45:50.628Z,99937.78
2022-10-21T19:48:18.371Z,99939.69
2022-10-21T19:50:46.057Z,99942.59
2022-10-21T19:53:13.763Z,99950.97
2022-10-21T19:55:41.543Z,99950.97
2022-10-21T19:58:09.208Z,99960.22
2022-10-21T20:00:37.133Z,99959.41
2022-10-21T20:03:05.266Z,99966.53
2022-10-21T20:05:36.970Z,99966.53
2022-10-21T20:08:05.796Z,99963.16
2022-10-21T20:10:33.510Z,99969.47
2022-10-21T20:13:01.198Z,99974.06
2022-10-21T20:15:29.059Z,99973.25
2022-10-21T20:17:56.750Z,99979.75
2022-10-21T20:20:24.459Z,99976.19
2022-10-21T20:22:52.124Z,99977.84
2022-10-21T20:25:20.096Z,99970.72
2022-10-21T20:27:47.784Z,99962.53
2022-10-21T20:30:15.693Z,99966.09
2022-10-21T20:32:43.354Z,99970.72
2022-10-21T20:35:11.024Z,99969.03
2022-10-21T20:37:39.238Z,99978.28
2022-10-21T20:40:07.231Z,99969.44
2022-10-21T20:42:35.411Z,99974.91
2022-10-21T20:45:03.231Z,99970.28
2022-10-21T20:47:31.022Z,99971.34
2022-10-21T20:49:58.777Z,99965.88
2022-10-21T20:52:26.603Z,99970.50
2022-10-21T20:54:55.447Z,99960.59
2022-10-21T20:57:23.118Z,99964.41
2022-10-21T20:59:50.887Z,99959.97
2022-10-21T21:02:18.597Z,99964.41
2022-10-21T21:04:46.268Z,99959.97
2022-10-21T21:10:01.606Z,99959.34
2022-10-21T21:17:25.883Z,99961.22
2022-10-21T21:19:53.659Z,99966.06
2022-10-21T21:22:21.428Z,99965.22
2022-10-21T21:24:49.123Z,99968.78
2022-10-21T21:27:16.890Z,99967.97
2022-10-21T21:29:44.603Z,99972.78
2022-10-21T21:32:12.530Z,99981.97
2022-10-21T21:34:40.395Z,99989.16
2022-10-21T21:37:08.247Z,99983.69
2022-10-21T21:39:36.345Z,99983.69
2022-10-21T21:42:04.266Z,99994.59
2022-10-21T21:44:32.275Z,99994.59
2022-10-21T21:47:00.104Z,99988.31
2022-10-21T21:49:27.940Z,99994.59
2022-10-21T21:51:56.209Z,99983.69
2022-10-21T21:54:23.997Z,99979.91
2022-10-21T21:57:00.630Z,99979.06
2022-10-21T21:59:40.031Z,99976.53
2022-10-21T22:02:07.846Z,99965.59
2022-10-21T22:04:37.910Z,99971.06
2022-10-21T22:07:05.779Z,99957.41
2022-10-21T22:09:33.591Z,99951.97
2022-10-21T22:12:04.539Z,99953.66
2022-10-21T22:14:32.339Z,99952.81
2022-10-21T22:17:00.138Z,99962.69
2022-10-21T22:19:28.138Z,99971.94
2022-10-21T22:21:55.980Z,99971.94
2022-10-21T22:24:23.890Z,99973.78
2022-10-21T22:26:51.698Z,99979.06
2022-10-21T22:29:19.586Z,99980.97
2022-10-21T22:31:47.431Z,99981.97
2022-10-21T22:34:15.242Z,99976.53
2022-10-21T22:36:43.105Z,99972.97
2022-10-21T22:39:10.969Z,99968.34
2022-10-21T22:41:38.850Z,99971.06
2022-10-21T22:44:06.629Z,99964.78
2022-10-21T22:46:34.976Z,99951.13
2022-10-21T22:49:03.165Z,99942.94
2022-10-21T22:51:31.022Z,99936.66
2022-10-21T22:53:59.032Z,99921.94
2022-10-21T22:56:26.835Z,99918.38
2022-10-21T22:58:54.638Z,99904.72
2022-10-21T23:01:24.223Z,99902.84
2022-10-21T23:03:52.261Z,99895.53
2022-10-21T23:06:20.192Z,99907.47
2022-10-21T23:08:48.091Z,99921.34
2022-10-21T23:11:15.938Z,99934.75
2022-10-21T23:13:56.154Z,99934.75
2022-10-21T23:16:30.801Z,99927.81
2022-10-21T23:18:58.834Z,99941.28
2022-10-21T23:21:26.720Z,99949.66
2022-10-21T23:23:54.691Z,99952.38
2022-10-21T23:26:22.532Z,99957.00
2022-10-21T23:28:50.557Z,99958.06
2022-10-21T23:31:18.591Z,99963.72
2022-10-21T23:33:46.517Z,99978.00
2022-10-21T23:36:14.444Z,99981.75
2022-10-21T23:38:42.207Z,99959.09
2022-10-21T23:41:09.998Z,99950.91
2022-10-21T23:43:37.971Z,99945.66
2022-10-21T23:46:06.818Z,99942.72
2022-10-21T23:48:34.581Z,99944.59
2022-10-21T23:51:02.368Z,99933.69
2022-10-21T23:53:30.153Z,99949.22
2022-10-21T23:55:57.977Z,99967.50
2022-10-21T23:58:25.846Z,99955.53
